Terminal Aerodrome Forecast
Issued by NWS

Home | Current Version | Previous Version | Graphics & Text | Print | Product List | Glossary On
Versions: 1 2 3 4 5 6 7 8 9 10 11 12 13 14 15 16 17 18 19 20 21 22
000
FTUS41 KCLE 251300 AAA
TAFFDY
TAF AMD
KFDY 251318Z 2513/2612 08006KT P6SM SCT006 OVC015
     FM251400 06010KT 5SM BR OVC006
      TEMPO 2514/2516 SCT006 OVC015
     FM251600 06012G22KT 1SM -SN OVC006
      TEMPO 2520/2524 1/2SM SN OVC003
     FM260500 06012G22KT 4SM -SN BR OVC012
     FM260900 06012G22KT P6SM OVC015=

USA.gov is the U.S. government's official web portal to all federal, state and local government web resources and services.